Time;durP1;ratioP1;P1;durP2;ratioP2;P2;SDS_P1;SDS_P2;PMS_P1;PMS_P2;Temp;Humidity;BMP_temperature;BMP_pressure;BME280_temperature;BME280_humidity;BME280_pressure;Samples;Min_cycle;Max_cycle;Signal;HPM_P1;HPM_P2
2022/07/27 00:00:57;;;;;;;;;;;;;;;17.16;100.00;99751.03;3059362;19;940;-48
2022/07/27 00:02:01;;;;;;;;;;;;;;;17.22;100.00;99762.06;3058009;19;1027;-48
2022/07/27 00:03:03;;;;;;;;;;;;;;;17.26;100.00;99754.53;3058570;19;877;-48
2022/07/27 00:04:08;;;;;;;;;;;;;;;17.27;100.00;99753.50;3058704;19;1854;-48
2022/07/27 00:05:10;;;;;;;;;;;;;;;17.32;100.00;99762.00;3059394;19;886;-48
2022/07/27 00:06:14;;;;;;;;;;;;;;;17.34;100.00;99757.28;3058742;19;977;-48
2022/07/27 00:07:16;;;;;;;;;;;;;;;17.36;100.00;99763.38;3058915;19;1016;-48
2022/07/27 00:08:22;;;;;;;;;;;;;;;17.35;100.00;99764.38;3058835;19;968;-49
2022/07/27 00:09:27;;;;;;;;;;;;;;;17.39;100.00;99763.06;3059002;19;955;-48
2022/07/27 00:10:29;;;;;;;;;;;;;;;17.41;100.00;99766.44;3059538;19;1657;-48
2022/07/27 00:11:33;;;;;;;;;;;;;;;17.44;100.00;99766.13;3059153;19;897;-49
2022/07/27 00:12:35;;;;;;;;;;;;;;;17.46;100.00;99757.91;3058775;19;1008;-48
2022/07/27 00:13:40;;;;;;;;;;;;;;;17.50;100.00;99767.38;3058765;19;936;-48
2022/07/27 00:14:44;;;;;;;;;;;;;;;17.49;100.00;99769.22;3058944;19;952;-48
2022/07/27 00:15:46;;;;;;;;;;;;;;;17.54;100.00;99772.28;3058840;19;813;-48
2022/07/27 00:16:50;;;;;;;;;;;;;;;17.56;100.00;99775.69;3058933;19;999;-48
2022/07/27 00:17:52;;;;;;;;;;;;;;;17.59;100.00;99779.94;3058766;19;644;-48
2022/07/27 00:18:57;;;;;;;;;;;;;;;17.57;100.00;99782.78;3058942;19;881;-49
2022/07/27 00:19:59;;;;;;;;;;;;;;;17.61;100.00;99788.72;3059066;19;1268;-48
2022/07/27 00:21:03;;;;;;;;;;;;;;;17.63;100.00;99787.56;3058831;19;1064;-48
2022/07/27 00:22:05;;;;;;;;;;;;;;;17.66;100.00;99793.66;3058991;19;924;-48
2022/07/27 00:23:10;;;;;;;;;;;;;;;17.67;100.00;99798.06;3059006;19;924;-48
2022/07/27 00:24:12;;;;;;;;;;;;;;;17.68;100.00;99794.34;3058653;19;1845;-48
2022/07/27 00:25:16;;;;;;;;;;;;;;;17.73;100.00;99795.59;3058751;19;1256;-48
2022/07/27 00:26:18;;;;;;;;;;;;;;;17.76;100.00;99791.69;3058874;19;890;-48
2022/07/27 00:27:22;;;;;;;;;;;;;;;17.76;100.00;99802.50;3058909;19;999;-48
2022/07/27 00:28:24;;;;;;;;;;;;;;;17.72;100.00;99806.53;3058786;19;1175;-49
2022/07/27 00:29:29;;;;;;;;;;;;;;;17.70;100.00;99805.84;3058761;19;931;-48
2022/07/27 00:30:31;;;;;;;;;;;;;;;17.70;100.00;99808.53;3058352;19;948;-48
2022/07/27 00:31:35;;;;;;;;;;;;;;;17.71;100.00;99819.19;3058704;19;1667;-48
2022/07/27 00:32:37;;;;;;;;;;;;;;;17.72;100.00;99825.44;3058614;19;1030;-49
2022/07/27 00:33:42;;;;;;;;;;;;;;;17.73;100.00;99829.81;3059553;19;1142;-48
2022/07/27 00:34:44;;;;;;;;;;;;;;;17.72;100.00;99841.63;3058262;19;944;-48
2022/07/27 00:35:48;;;;;;;;;;;;;;;17.74;100.00;99848.56;3058378;19;1063;-48
2022/07/27 00:36:50;;;;;;;;;;;;;;;17.77;100.00;99845.53;3058497;19;961;-47
2022/07/27 00:37:55;;;;;;;;;;;;;;;17.74;100.00;99848.56;3057322;19;1282;-50
2022/07/27 00:39:01;;;;;;;;;;;;;;;17.72;100.00;99855.13;3057855;19;1036;-49
2022/07/27 00:40:03;;;;;;;;;;;;;;;17.73;100.00;99854.13;3058643;19;862;-48
2022/07/27 00:41:08;;;;;;;;;;;;;;;17.74;100.00;99853.13;3058659;19;883;-48
2022/07/27 00:42:10;;;;;;;;;;;;;;;17.69;100.00;99867.06;3058438;19;961;-48
2022/07/27 00:43:14;;;;;;;;;;;;;;;17.68;100.00;99869.91;3058497;19;893;-48
2022/07/27 00:44:31;;;;;;;;;;;;;;;17.65;100.00;99879.16;3058478;19;1717;-48
2022/07/27 00:45:33;;;;;;;;;;;;;;;17.68;100.00;99875.31;3058077;19;858;-48
2022/07/27 00:46:38;;;;;;;;;;;;;;;17.68;100.00;99878.00;3058849;19;916;-49
2022/07/27 00:47:40;;;;;;;;;;;;;;;17.67;100.00;99884.41;3058403;19;912;-48
2022/07/27 00:48:44;;;;;;;;;;;;;;;17.66;100.00;99885.41;3058653;19;973;-48
2022/07/27 00:49:46;;;;;;;;;;;;;;;17.65;100.00;99892.66;3058223;19;1016;-48
2022/07/27 00:50:51;;;;;;;;;;;;;;;17.63;100.00;99892.78;3058281;19;919;-48
2022/07/27 00:51:53;;;;;;;;;;;;;;;17.60;100.00;99893.09;3057433;19;1756;-49
2022/07/27 00:52:57;;;;;;;;;;;;;;;17.60;100.00;99895.78;3057680;19;1139;-48
2022/07/27 00:53:59;;;;;;;;;;;;;;;17.62;100.00;99899.19;3057352;19;966;-48
2022/07/27 00:55:03;;;;;;;;;;;;;;;17.60;100.00;99905.75;3057451;19;1368;-48
2022/07/27 00:56:05;;;;;;;;;;;;;;;17.60;100.00;99903.88;3057372;19;957;-49
2022/07/27 00:57:13;;;;;;;;;;;;;;;17.58;100.00;99908.59;3057668;19;886;-48
2022/07/27 00:58:15;;;;;;;;;;;;;;;17.56;100.00;99905.19;3057532;19;885;-49
2022/07/27 00:59:20;;;;;;;;;;;;;;;17.56;100.00;99910.59;3057158;19;1082;-49
2022/07/27 01:00:22;;;;;;;;;;;;;;;17.52;100.00;99909.19;3057184;19;1040;-49
2022/07/27 01:01:27;;;;;;;;;;;;;;;17.45;100.00;99918.91;3057735;19;922;-48
2022/07/27 01:02:29;;;;;;;;;;;;;;;17.45;100.00;99913.50;3058319;19;881;-48
2022/07/27 01:03:35;;;;;;;;;;;;;;;17.49;100.00;99920.31;3058341;19;961;-50
2022/07/27 01:04:40;;;;;;;;;;;;;;;17.46;100.00;99915.19;3058422;19;959;-49
2022/07/27 01:05:49;;;;;;;;;;;;;;;17.50;100.00;99916.59;3058330;19;972;-47
2022/07/27 01:06:51;;;;;;;;;;;;;;;17.51;100.00;99926.38;3057015;19;965;-47
2022/07/27 01:07:56;;;;;;;;;;;;;;;17.51;100.00;99939.84;3057470;19;954;-48
2022/07/27 01:10:18;;;;;;;;;;;;;;;17.49;100.00;99936.50;3057208;19;1564;-48
2022/07/27 01:11:20;;;;;;;;;;;;;;;17.45;100.00;99951.28;3058182;19;944;-47
2022/07/27 01:12:24;;;;;;;;;;;;;;;17.48;100.00;99942.03;3056985;19;1051;-47
2022/07/27 01:13:26;;;;;;;;;;;;;;;17.50;100.00;99940.88;3057100;19;937;-48
2022/07/27 01:14:30;;;;;;;;;;;;;;;17.51;100.00;99947.94;3057085;19;859;-48
2022/07/27 01:15:32;;;;;;;;;;;;;;;17.51;100.00;99950.66;3057160;19;1000;-47
2022/07/27 01:16:40;;;;;;;;;;;;;;;17.46;100.00;99968.31;3057357;19;869;-48
2022/07/27 01:17:42;;;;;;;;;;;;;;;17.50;100.00;99964.31;3057204;19;1421;-47
2022/07/27 01:18:46;;;;;;;;;;;;;;;17.48;100.00;99972.56;3058241;19;825;-48
2022/07/27 01:19:48;;;;;;;;;;;;;;;17.49;100.00;99965.31;3058032;19;881;-48
2022/07/27 01:20:52;;;;;;;;;;;;;;;17.47;100.00;99964.63;3058067;19;983;-48
2022/07/27 01:21:54;;;;;;;;;;;;;;;17.43;100.00;99969.44;3057997;19;961;-47
2022/07/27 01:22:59;;;;;;;;;;;;;;;17.45;100.00;99972.00;3057658;19;977;-47
2022/07/27 01:24:01;;;;;;;;;;;;;;;17.42;100.00;99966.91;3057770;19;949;-48
2022/07/27 01:25:05;;;;;;;;;;;;;;;17.41;100.00;99960.66;3057964;19;1843;-47
2022/07/27 01:26:07;;;;;;;;;;;;;;;17.40;100.00;99963.50;3057931;19;981;-48
2022/07/27 01:27:11;;;;;;;;;;;;;;;17.35;100.00;99971.22;3058011;19;1070;-48
2022/07/27 01:28:14;;;;;;;;;;;;;;;17.34;100.00;99974.91;3057523;19;949;-47
2022/07/27 01:29:18;;;;;;;;;;;;;;;17.32;100.00;99977.75;3057647;19;1015;-49
2022/07/27 01:30:26;;;;;;;;;;;;;;;17.31;100.00;99978.75;3057777;19;965;-46
2022/07/27 01:31:31;;;;;;;;;;;;;;;17.25;100.00;99966.72;3057896;19;897;-49
2022/07/27 01:32:33;;;;;;;;;;;;;;;17.22;100.00;99976.94;3057233;19;861;-48
2022/07/27 01:33:37;;;;;;;;;;;;;;;17.21;100.00;99977.94;3057125;19;976;-48
2022/07/27 01:34:39;;;;;;;;;;;;;;;17.16;100.00;99989.16;3057817;19;1004;-47
2022/07/27 01:35:44;;;;;;;;;;;;;;;17.13;100.00;99977.84;3057792;19;944;-49
2022/07/27 01:36:46;;;;;;;;;;;;;;;17.10;100.00;99988.94;3057705;19;897;-49
2022/07/27 01:37:50;;;;;;;;;;;;;;;17.07;100.00;99967.66;3057405;19;936;-46
2022/07/27 01:38:52;;;;;;;;;;;;;;;17.03;100.00;99977.03;3057918;19;1052;-47
2022/07/27 01:39:56;;;;;;;;;;;;;;;16.99;100.00;99981.88;3057405;19;1428;-48
2022/07/27 01:40:58;;;;;;;;;;;;;;;16.93;100.00;99977.91;3057801;19;1027;-48
2022/07/27 01:42:02;;;;;;;;;;;;;;;16.90;100.00;99975.50;3056554;19;1028;-47
2022/07/27 01:43:04;;;;;;;;;;;;;;;16.88;100.00;99979.38;3056694;19;969;-48
2022/07/27 01:44:09;;;;;;;;;;;;;;;16.83;100.00;99977.09;3057564;19;885;-48
2022/07/27 01:45:11;;;;;;;;;;;;;;;16.80;100.00;99977.38;3057862;19;916;-48
2022/07/27 01:46:15;;;;;;;;;;;;;;;16.75;100.00;99974.31;3056666;19;1843;-48
2022/07/27 01:47:17;;;;;;;;;;;;;;;16.73;100.00;99975.44;3057657;19;952;-48
2022/07/27 01:48:21;;;;;;;;;;;;;;;16.69;100.00;99980.25;3057868;19;869;-47
2022/07/27 01:49:23;;;;;;;;;;;;;;;16.66;100.00;99980.56;3057109;19;972;-48
2022/07/27 01:50:28;;;;;;;;;;;;;;;16.61;100.00;99971.19;3057427;19;890;-48
2022/07/27 01:51:30;;;;;;;;;;;;;;;16.59;100.00;99971.31;3057730;19;1024;-48
2022/07/27 01:52:34;;;;;;;;;;;;;;;16.55;100.00;99972.59;3057183;19;979;-48
2022/07/27 01:53:39;;;;;;;;;;;;;;;16.52;100.00;99967.53;3057928;19;790;-47
2022/07/27 01:54:40;;;;;;;;;;;;;;;16.49;100.00;99973.19;3057520;19;960;-48
2022/07/27 01:55:45;;;;;;;;;;;;;;;16.48;100.00;99971.50;3057193;19;941;-48
2022/07/27 01:56:47;;;;;;;;;;;;;;;16.46;100.00;99968.09;3057486;19;877;-48
2022/07/27 01:57:51;;;;;;;;;;;;;;;16.47;100.00;99964.41;3057387;19;1167;-48
2022/07/27 01:58:54;;;;;;;;;;;;;;;16.45;100.00;99961.84;3057462;19;869;-49
2022/07/27 01:59:59;;;;;;;;;;;;;;;16.46;100.00;99957.31;3057603;19;1004;-48
2022/07/27 02:01:00;;;;;;;;;;;;;;;16.49;100.00;99967.81;3057192;19;838;-49
2022/07/27 02:02:05;;;;;;;;;;;;;;;16.49;100.00;99967.81;3057577;19;1720;-48
2022/07/27 02:03:08;;;;;;;;;;;;;;;16.51;100.00;99971.22;3057460;19;916;-48
2022/07/27 02:04:12;;;;;;;;;;;;;;;16.52;100.00;99967.53;3057213;19;1066;-48
2022/07/27 02:05:14;;;;;;;;;;;;;;;16.55;100.00;99972.59;3057250;19;968;-47
2022/07/27 02:06:18;;;;;;;;;;;;;;;16.57;100.00;99965.22;3056886;19;2130;-48
2022/07/27 02:07:20;;;;;;;;;;;;;;;16.60;100.00;99970.34;3057200;19;1038;-48
2022/07/27 02:08:24;;;;;;;;;;;;;;;16.62;100.00;99971.06;3057327;19;961;-49
2022/07/27 02:09:26;;;;;;;;;;;;;;;16.65;100.00;99984.25;3057646;19;873;-47
2022/07/27 02:10:31;;;;;;;;;;;;;;;16.67;100.00;99982.25;3057147;19;921;-47
2022/07/27 02:12:50;;;;;;;;;;;;;;;16.71;100.00;99980.13;3057014;19;989;-48
2022/07/27 02:13:52;;;;;;;;;;;;;;;16.73;100.00;99981.69;3057378;19;928;-47
2022/07/27 02:14:56;;;;;;;;;;;;;;;16.75;100.00;99984.22;3057144;19;1245;-47
2022/07/27 02:16:06;;;;;;;;;;;;;;;16.78;100.00;99990.19;3057571;19;703;-48
2022/07/27 02:17:20;;;;;;;;;;;;;;;16.80;100.00;99982.78;3056998;19;1000;-49
2022/07/27 02:18:22;;;;;;;;;;;;;;;16.83;100.00;99989.72;3057144;19;1016;-49
2022/07/27 02:19:40;;;;;;;;;;;;;;;16.85;100.00;99995.81;3057039;19;1703;-47
2022/07/27 02:20:42;;;;;;;;;;;;;;;16.86;100.00;99993.00;3057318;19;873;-47
2022/07/27 02:21:47;;;;;;;;;;;;;;;16.88;100.00;99999.09;3056945;19;953;-47
2022/07/27 02:22:49;;;;;;;;;;;;;;;16.88;100.00;100001.78;3057342;19;948;-49
2022/07/27 02:23:53;;;;;;;;;;;;;;;16.89;100.00;100002.63;3056874;19;1024;-48
2022/07/27 02:24:56;;;;;;;;;;;;;;;16.90;100.00;100007.84;3057133;19;830;-47
2022/07/27 02:26:00;;;;;;;;;;;;;;;16.92;100.00;100013.94;3056786;19;1849;-48
2022/07/27 02:27:02;;;;;;;;;;;;;;;16.93;100.00;100012.97;3056693;19;1048;-49
2022/07/27 02:28:07;;;;;;;;;;;;;;;16.95;100.00;100011.97;3057033;19;1033;-49
2022/07/27 02:29:09;;;;;;;;;;;;;;;16.96;100.00;100013.66;3057131;19;876;-50
2022/07/27 02:30:14;;;;;;;;;;;;;;;16.95;100.00;100017.34;3056969;19;869;-50
2022/07/27 02:31:18;;;;;;;;;;;;;;;16.95;100.00;100025.44;3057001;19;912;-47
2022/07/27 02:32:23;;;;;;;;;;;;;;;16.96;100.00;100019.06;3057067;19;968;-48
2022/07/27 02:33:24;;;;;;;;;;;;;;;16.87;100.00;100010.88;3057189;19;992;-47
2022/07/27 02:34:29;;;;;;;;;;;;;;;16.92;100.00;100019.34;3056788;19;881;-48
2022/07/27 02:35:31;;;;;;;;;;;;;;;16.95;100.00;100017.34;3056668;19;901;-49
2022/07/27 02:36:35;;;;;;;;;;;;;;;16.95;100.00;100018.19;3056895;19;921;-47
2022/07/27 02:37:37;;;;;;;;;;;;;;;16.95;100.00;100028.13;3056622;19;875;-47
2022/07/27 02:38:42;;;;;;;;;;;;;;;16.95;100.00;100031.69;3056868;19;1879;-49
2022/07/27 02:39:44;;;;;;;;;;;;;;;16.95;100.00;100030.84;3056919;19;987;-48
2022/07/27 02:42:23;;;;;;;;;;;;;;;16.96;100.00;100040.63;3068842;19;2008;-48
2022/07/27 02:43:25;;;;;;;;;;;;;;;16.99;100.00;100043.03;3070324;19;1353;-49
2022/07/27 02:44:29;;;;;;;;;;;;;;;16.99;100.00;100032.25;3070748;19;947;-49
2022/07/27 02:45:35;;;;;;;;;;;;;;;17.02;100.00;100034.66;3071208;19;956;-49
2022/07/27 02:46:39;;;;;;;;;;;;;;;17.04;100.00;100043.44;3070686;19;1677;-50
2022/07/27 02:47:42;;;;;;;;;;;;;;;17.06;100.00;100053.06;3070775;19;1039;-50
2022/07/27 02:48:46;;;;;;;;;;;;;;;17.06;100.00;100054.91;3070657;19;868;-49
2022/07/27 02:49:48;;;;;;;;;;;;;;;17.09;100.00;100057.31;3071310;19;872;-49
2022/07/27 02:50:53;;;;;;;;;;;;;;;17.08;100.00;100061.03;3070801;19;983;-48
2022/07/27 02:51:55;;;;;;;;;;;;;;;17.10;100.00;100064.44;3071153;19;946;-48
2022/07/27 02:52:59;;;;;;;;;;;;;;;17.10;100.00;100062.56;3070594;19;971;-49
2022/07/27 02:54:01;;;;;;;;;;;;;;;17.13;100.00;100069.53;3070953;19;1066;-49
2022/07/27 02:55:06;;;;;;;;;;;;;;;17.12;100.00;100074.06;3070760;19;932;-51
2022/07/27 02:56:08;;;;;;;;;;;;;;;17.12;100.00;100074.06;3070692;19;935;-49
2022/07/27 02:57:12;;;;;;;;;;;;;;;17.14;100.00;100072.09;3071742;19;908;-49
2022/07/27 02:58:14;;;;;;;;;;;;;;;17.17;100.00;100077.16;3070808;19;1035;-49
2022/07/27 02:59:19;;;;;;;;;;;;;;;17.19;100.00;100085.09;3070607;19;1339;-49
2022/07/27 03:00:21;;;;;;;;;;;;;;;17.19;100.00;100085.09;3070852;19;936;-50
2022/07/27 03:01:25;;;;;;;;;;;;;;;17.20;100.00;100082.28;3070460;19;872;-50
2022/07/27 03:02:27;;;;;;;;;;;;;;;17.23;100.00;100092.78;3069629;19;1848;-49
2022/07/27 03:03:32;;;;;;;;;;;;;;;17.25;100.00;100087.22;3070299;19;880;-49
2022/07/27 03:04:37;;;;;;;;;;;;;;;17.25;100.00;100095.31;3070895;19;1027;-49
2022/07/27 03:05:42;;;;;;;;;;;;;;;17.23;100.00;100086.53;3070104;19;1675;-48
2022/07/27 03:06:44;;;;;;;;;;;;;;;17.27;100.00;100096.84;3071103;19;880;-49
2022/07/27 03:07:48;;;;;;;;;;;;;;;17.26;100.00;100103.28;3070274;19;1150;-49
2022/07/27 03:08:50;;;;;;;;;;;;;;;17.27;100.00;100109.50;3070816;19;1394;-49
2022/07/27 03:09:54;;;;;;;;;;;;;;;17.26;100.00;100113.22;3070339;19;960;-48
2022/07/27 03:10:56;;;;;;;;;;;;;;;17.27;100.00;100114.88;3070727;19;924;-50
2022/07/27 03:12:01;;;;;;;;;;;;;;;17.29;100.00;100120.97;3070651;19;923;-48
2022/07/27 03:13:03;;;;;;;;;;;;;;;17.29;100.00;100118.28;3071034;19;884;-49
2022/07/27 03:14:07;;;;;;;;;;;;;;;17.26;100.00;100119.47;3070124;19;1742;-48
2022/07/27 03:15:09;;;;;;;;;;;;;;;17.28;100.00;100138.16;3070661;19;971;-48
2022/07/27 03:16:14;;;;;;;;;;;;;;;17.28;100.00;100143.56;3070568;19;1223;-48
2022/07/27 03:17:16;;;;;;;;;;;;;;;17.27;100.00;100145.41;3070534;19;963;-49
2022/07/27 03:18:20;;;;;;;;;;;;;;;17.31;100.00;100147.81;3070218;19;1755;-48
2022/07/27 03:19:22;;;;;;;;;;;;;;;17.25;100.00;100152.81;3070530;19;916;-49
2022/07/27 03:20:33;;;;;;;;;;;;;;;17.28;100.00;100154.34;3070251;19;864;-50
2022/07/27 03:21:35;;;;;;;;;;;;;;;17.30;100.00;100152.34;3070451;19;876;-49
2022/07/27 03:22:39;;;;;;;;;;;;;;;17.32;100.00;100150.38;3069019;19;1846;-50
2022/07/27 03:23:41;;;;;;;;;;;;;;;17.33;100.00;100151.22;3070558;19;1392;-49
2022/07/27 03:24:45;;;;;;;;;;;;;;;17.34;100.00;100152.94;3071276;19;948;-50
2022/07/27 03:25:50;;;;;;;;;;;;;;;17.33;100.00;100160.16;3070002;19;804;-50
2022/07/27 03:26:52;;;;;;;;;;;;;;;17.34;100.00;100161.88;3071429;19;1792;-48
2022/07/27 03:27:56;;;;;;;;;;;;;;;17.36;100.00;100167.97;3070236;19;975;-50
2022/07/27 03:29:04;;;;;;;;;;;;;;;17.36;100.00;100170.66;3070401;19;1095;-49
2022/07/27 03:30:09;;;;;;;;;;;;;;;17.36;100.00;100167.13;3070078;19;1024;-50
2022/07/27 03:31:11;;;;;;;;;;;;;;;17.37;100.00;100168.81;3070270;19;1027;-48
2022/07/27 03:32:16;;;;;;;;;;;;;;;17.37;100.00;100164.28;3070188;19;873;-50
2022/07/27 03:33:17;;;;;;;;;;;;;;;17.36;100.00;100173.38;3070317;19;1675;-50
2022/07/27 03:34:22;;;;;;;;;;;;;;;17.36;100.00;100177.91;3069848;19;1047;-49
2022/07/27 03:35:24;;;;;;;;;;;;;;;17.35;100.00;100171.66;3070223;19;1228;-50
2022/07/27 03:36:28;;;;;;;;;;;;;;;17.30;100.00;100163.16;3068901;19;1524;-49
2022/07/27 03:37:31;;;;;;;;;;;;;;;17.34;100.00;100186.16;3068869;19;927;-50
2022/07/27 03:38:36;;;;;;;;;;;;;;;17.34;100.00;100175.34;3069879;19;892;-49
2022/07/27 03:39:38;;;;;;;;;;;;;;;17.34;100.00;100183.44;3070443;19;899;-51
2022/07/27 03:40:42;;;;;;;;;;;;;;;17.34;100.00;100182.59;3069768;19;888;-48
2022/07/27 03:41:44;;;;;;;;;;;;;;;17.31;100.00;100185.56;3069560;19;1090;-50
2022/07/27 03:42:48;;;;;;;;;;;;;;;17.28;100.00;100189.41;3069269;19;1872;-50
2022/07/27 03:43:50;;;;;;;;;;;;;;;17.21;100.00;100186.44;3070440;19;963;-49
2022/07/27 03:44:55;;;;;;;;;;;;;;;17.19;100.00;100190.28;3069558;19;1117;-50
2022/07/27 03:45:57;;;;;;;;;;;;;;;17.19;100.00;100196.53;3070253;19;967;-50
2022/07/27 03:47:01;;;;;;;;;;;;;;;17.17;100.00;100189.56;3069831;19;1000;-48
2022/07/27 03:48:03;;;;;;;;;;;;;;;17.12;100.00;100181.06;3070499;19;1038;-50
2022/07/27 03:49:08;;;;;;;;;;;;;;;17.10;100.00;100189.31;3069966;19;1256;-48
2022/07/27 03:50:15;;;;;;;;;;;;;;;17.07;100.00;100194.13;3070584;19;796;-48
2022/07/27 03:51:19;;;;;;;;;;;;;;;17.05;100.00;100190.72;3069702;19;1750;-48
2022/07/27 03:52:22;;;;;;;;;;;;;;;16.95;100.00;100173.69;3070503;19;927;-49
2022/07/27 03:53:26;;;;;;;;;;;;;;;16.99;100.00;100183.22;3060996;19;1090;-49
2022/07/27 03:54:28;;;;;;;;;;;;;;;16.97;100.00;100187.88;3058267;19;961;-48
2022/07/27 03:55:32;;;;;;;;;;;;;;;16.96;100.00;100186.19;3058186;19;819;-49
2022/07/27 03:56:34;;;;;;;;;;;;;;;16.96;100.00;100187.03;3058403;19;868;-49
2022/07/27 03:57:39;;;;;;;;;;;;;;;16.96;100.00;100192.44;3057969;19;895;-50
2022/07/27 03:58:41;;;;;;;;;;;;;;;17.00;100.00;100199.25;3058418;19;944;-48
2022/07/27 03:59:45;;;;;;;;;;;;;;;17.04;100.00;100195.25;3056567;19;1042;-50
2022/07/27 04:00:47;;;;;;;;;;;;;;;17.09;100.00;100197.53;3057448;19;980;-49
2022/07/27 04:01:51;;;;;;;;;;;;;;;17.16;100.00;100196.81;3056895;19;920;-49
2022/07/27 04:02:53;;;;;;;;;;;;;;;17.25;100.00;100189.72;3057055;19;1846;-49
2022/07/27 04:03:58;;;;;;;;;;;;;;;17.38;100.00;100192.97;3057832;19;889;-49
2022/07/27 04:05:00;;;;;;;;;;;;;;;18.04;100.00;100195.59;3058412;19;1023;-48
2022/07/27 04:06:04;;;;;;;;;;;;;;;18.12;100.00;100209.19;3057861;19;925;-49
2022/07/27 04:07:06;;;;;;;;;;;;;;;18.86;100.00;100203.63;3058576;19;971;-49
2022/07/27 04:08:11;;;;;;;;;;;;;;;18.66;100.00;100219.16;3057701;19;1389;-48
2022/07/27 04:09:13;;;;;;;;;;;;;;;18.55;100.00;100226.59;3058307;19;876;-48
2022/07/27 04:10:17;;;;;;;;;;;;;;;18.48;100.00;100236.28;3058068;19;940;-48
2022/07/27 04:11:20;;;;;;;;;;;;;;;18.42;100.00;100231.50;3058478;19;928;-50
2022/07/27 04:12:26;;;;;;;;;;;;;;;18.92;100.00;100229.22;3059647;19;942;-48
2022/07/27 04:13:29;;;;;;;;;;;;;;;20.49;100.00;100247.09;3058014;19;960;-50
2022/07/27 04:14:34;;;;;;;;;;;;;;;21.69;100.00;100260.16;3057955;19;972;-50
2022/07/27 04:15:36;;;;;;;;;;;;;;;21.28;100.00;100274.75;3058167;19;897;-50
2022/07/27 04:16:41;;;;;;;;;;;;;;;20.82;100.00;100279.72;3057848;19;892;-51
2022/07/27 04:17:43;;;;;;;;;;;;;;;20.57;100.00;100291.50;3058085;19;1051;-48
2022/07/27 04:19:00;;;;;;;;;;;;;;;21.43;100.00;100292.06;3057733;19;1340;-51
2022/07/27 04:20:03;;;;;;;;;;;;;;;22.74;100.00;100307.09;3058165;19;904;-51
2022/07/27 04:21:07;;;;;;;;;;;;;;;23.86;100.00;100312.84;3057462;19;1027;-49
2022/07/27 04:22:09;;;;;;;;;;;;;;;24.82;100.00;100325.63;3057974;19;1361;-50
2022/07/27 04:23:13;;;;;;;;;;;;;;;25.66;100.00;100342.38;3057185;19;1850;-49
2022/07/27 04:24:16;;;;;;;;;;;;;;;26.42;100.00;100337.97;3058079;19;919;-51
2022/07/27 04:25:20;;;;;;;;;;;;;;;27.13;100.00;100349.50;3057360;19;1000;-48
2022/07/27 04:26:22;;;;;;;;;;;;;;;27.82;97.68;100349.25;3057908;19;881;-49
2022/07/27 04:27:27;;;;;;;;;;;;;;;28.44;92.25;100345.25;3057438;19;1906;-49
2022/07/27 04:28:29;;;;;;;;;;;;;;;29.07;87.40;100356.50;3057692;19;991;-50
2022/07/27 04:29:33;;;;;;;;;;;;;;;29.64;82.54;100364.66;3057638;19;1712;-49
2022/07/27 04:30:35;;;;;;;;;;;;;;;30.18;78.44;100367.91;3057874;19;931;-48
2022/07/27 04:31:40;;;;;;;;;;;;;;;30.64;74.23;100373.81;3057769;19;940;-49
2022/07/27 04:32:42;;;;;;;;;;;;;;;31.09;71.17;100374.38;3057561;19;972;-50
2022/07/27 04:33:46;;;;;;;;;;;;;;;31.44;67.74;100373.69;3057734;19;895;-49
2022/07/27 04:34:48;;;;;;;;;;;;;;;31.77;66.40;100374.06;3057860;19;868;-50
2022/07/27 04:35:53;;;;;;;;;;;;;;;32.04;64.80;100374.50;3057245;19;860;-50
2022/07/27 04:36:55;;;;;;;;;;;;;;;32.32;62.77;100382.13;3056983;19;919;-50
2022/07/27 04:37:59;;;;;;;;;;;;;;;32.50;61.16;100383.91;3057746;19;860;-49
2022/07/27 04:39:03;;;;;;;;;;;;;;;32.62;60.06;100386.69;3057775;19;830;-50
2022/07/27 04:40:08;;;;;;;;;;;;;;;32.67;59.70;100386.81;3057870;19;1851;-49
2022/07/27 04:41:10;;;;;;;;;;;;;;;32.82;58.57;100392.72;3057810;19;899;-51
2022/07/27 04:42:14;;;;;;;;;;;;;;;32.93;58.71;100394.63;3056587;19;1476;-50
2022/07/27 04:43:16;;;;;;;;;;;;;;;33.04;58.24;100391.00;3057294;19;1860;-49
2022/07/27 04:44:20;;;;;;;;;;;;;;;33.14;57.85;100388.44;3057679;19;967;-49
2022/07/27 04:45:23;;;;;;;;;;;;;;;33.30;58.30;100394.31;3057635;19;904;-49
2022/07/27 04:46:28;;;;;;;;;;;;;;;33.47;57.43;100389.66;3057592;19;892;-49
2022/07/27 04:47:30;;;;;;;;;;;;;;;33.62;56.32;100395.50;3057398;19;948;-50
2022/07/27 04:48:35;;;;;;;;;;;;;;;33.65;55.36;100392.25;3057416;19;906;-50
2022/07/27 04:49:37;;;;;;;;;;;;;;;33.70;55.84;100385.94;3059148;19;1332;-50
2022/07/27 04:50:42;;;;;;;;;;;;;;;33.78;54.46;100397.50;3057218;19;852;-50
2022/07/27 04:51:44;;;;;;;;;;;;;;;33.69;53.61;100393.44;3057462;19;893;-49
2022/07/27 04:52:48;;;;;;;;;;;;;;;33.65;53.63;100397.78;3057371;19;963;-50
2022/07/27 04:53:50;;;;;;;;;;;;;;;33.45;52.33;100380.78;3057262;19;963;-49
2022/07/27 04:55:02;;;;;;;;;;;;;;;33.35;51.91;100397.16;3057694;19;861;-49
2022/07/27 04:56:04;;;;;;;;;;;;;;;33.13;51.78;100395.03;3057400;19;1003;-49
2022/07/27 04:57:08;;;;;;;;;;;;;;;33.08;52.08;100397.72;3057321;19;1750;-50
2022/07/27 04:58:10;;;;;;;;;;;;;;;33.09;52.08;100399.38;3057315;19;1027;-49
2022/07/27 04:59:15;;;;;;;;;;;;;;;32.96;51.75;100388.63;3057057;19;1772;-48
2022/07/27 05:00:17;;;;;;;;;;;;;;;32.86;52.60;100393.91;3057110;19;963;-50
2022/07/27 05:01:21;;;;;;;;;;;;;;;32.90;53.20;100395.09;3057618;19;1269;-49
2022/07/27 05:02:25;;;;;;;;;;;;;;;32.84;52.69;100385.03;3058010;19;1280;-50
2022/07/27 05:03:29;;;;;;;;;;;;;;;32.73;52.76;100377.56;3057552;19;1852;-50
2022/07/27 05:04:31;;;;;;;;;;;;;;;32.50;52.68;100386.69;3056673;19;1679;-49
2022/07/27 05:05:36;;;;;;;;;;;;;;;32.21;53.05;100380.22;3056545;19;1206;-50
2022/07/27 05:06:38;;;;;;;;;;;;;;;32.04;54.05;100379.19;3058598;19;1861;-49
2022/07/27 05:07:42;;;;;;;;;;;;;;;31.85;54.48;100375.69;3057034;19;940;-50
2022/07/27 05:08:44;;;;;;;;;;;;;;;31.55;54.77;100381.19;3057241;19;948;-50
2022/07/27 05:09:48;;;;;;;;;;;;;;;30.39;55.42;100376.56;3057139;19;1235;-51
2022/07/27 05:10:51;;;;;;;;;;;;;;;28.74;60.08;100376.63;3054381;19;1751;-48
2022/07/27 05:11:55;;;;;;;;;;;;;;;27.44;65.68;100377.22;3044279;19;1633;-48
2022/07/27 05:12:57;;;;;;;;;;;;;;;26.41;70.84;100382.81;3049878;19;1576;-50
2022/07/27 05:14:02;;;;;;;;;;;;;;;25.64;74.70;100363.59;3050516;19;1537;-51
2022/07/27 05:15:04;;;;;;;;;;;;;;;24.92;78.67;100366.25;3049978;19;1360;-49
2022/07/27 05:16:10;;;;;;;;;;;;;;;24.33;82.36;100358.09;3050314;19;1762;-49
2022/07/27 05:17:12;;;;;;;;;;;;;;;23.83;87.67;100359.53;3049568;19;1547;-49
2022/07/27 05:18:17;;;;;;;;;;;;;;;23.42;90.81;100364.44;3050352;19;1545;-50
2022/07/27 05:19:19;;;;;;;;;;;;;;;22.89;92.81;100357.06;3050099;19;1377;-50
2022/07/27 05:20:24;;;;;;;;;;;;;;;22.34;93.04;100357.88;3049232;19;1337;-50
2022/07/27 05:21:28;;;;;;;;;;;;;;;22.00;97.12;100362.69;3050791;19;1469;-50
2022/07/27 05:22:32;;;;;;;;;;;;;;;21.67;100.00;100359.97;3049717;19;1515;-50
2022/07/27 05:23:42;;;;;;;;;;;;;;;21.40;100.00;100368.41;3049668;19;1857;-49
2022/07/27 05:24:47;;;;;;;;;;;;;;;21.06;100.00;100363.91;3051042;19;1591;-49
2022/07/27 05:25:49;;;;;;;;;;;;;;;20.75;100.00;100351.94;3050166;19;1472;-48
2022/07/27 05:26:53;;;;;;;;;;;;;;;20.55;100.00;100347.75;3057658;19;982;-47
2022/07/27 05:27:55;;;;;;;;;;;;;;;20.36;100.00;100348.84;3056443;19;996;-49
2022/07/27 05:28:59;;;;;;;;;;;;;;;20.22;100.00;100347.53;3054901;19;1683;-47
2022/07/27 05:30:02;;;;;;;;;;;;;;;20.07;100.00;100349.97;3056364;19;1047;-47
2022/07/27 05:31:06;;;;;;;;;;;;;;;19.92;100.00;100342.59;3057744;19;994;-48
2022/07/27 05:32:08;;;;;;;;;;;;;;;19.85;100.00;100346.94;3057075;19;912;-46
2022/07/27 05:33:13;;;;;;;;;;;;;;;19.77;100.00;100351.28;3055865;19;891;-48
2022/07/27 05:34:15;;;;;;;;;;;;;;;19.64;100.00;100340.00;3056044;19;932;-47
2022/07/27 05:35:19;;;;;;;;;;;;;;;19.55;100.00;100338.25;3055238;19;923;-47
2022/07/27 05:36:21;;;;;;;;;;;;;;;19.52;100.00;100335.00;3057444;19;952;-48